createdAt,value
2023-06-07T00:00:40.520Z,13.28
2023-06-07T00:03:08.038Z,13.29
2023-06-07T00:05:37.364Z,13.08
2023-06-07T00:08:05.009Z,13.05
2023-06-07T00:10:32.456Z,13.28
2023-06-07T00:13:01.193Z,13.25
2023-06-07T00:15:28.569Z,13.31
2023-06-07T00:17:55.958Z,13.24
2023-06-07T00:20:23.383Z,13.08
2023-06-07T00:22:52.073Z,13.07
2023-06-07T00:25:19.381Z,12.99
2023-06-07T00:27:46.897Z,13.00
2023-06-07T00:30:15.162Z,12.97
2023-06-07T00:32:42.656Z,12.79
2023-06-07T00:35:13.332Z,13.01
2023-06-07T00:37:42.164Z,12.57
2023-06-07T00:40:11.823Z,12.90
2023-06-07T00:42:40.476Z,12.85
2023-06-07T00:45:09.148Z,12.90
2023-06-07T00:47:37.778Z,12.68
2023-06-07T00:50:06.654Z,12.69
2023-06-07T00:52:35.669Z,12.47
2023-06-07T00:55:05.995Z,12.00
2023-06-07T00:57:35.233Z,12.21
2023-06-07T01:00:03.638Z,12.51
2023-06-07T01:02:31.483Z,12.10
2023-06-07T01:04:59.346Z,12.46
2023-06-07T01:07:27.631Z,12.52
2023-06-07T01:09:55.554Z,12.61
2023-06-07T01:12:25.034Z,12.64
2023-06-07T01:14:55.710Z,12.73
2023-06-07T01:17:23.607Z,12.28
2023-06-07T01:19:53.551Z,12.30
2023-06-07T01:22:25.393Z,11.99
2023-06-07T01:24:54.107Z,12.25
2023-06-07T01:27:21.889Z,12.40
2023-06-07T01:29:51.321Z,12.47
2023-06-07T01:32:19.758Z,12.56
2023-06-07T01:34:48.628Z,12.66
2023-06-07T01:37:16.065Z,12.68
2023-06-07T01:39:44.065Z,12.75
2023-06-07T01:42:13.420Z,12.22
2023-06-07T01:44:42.182Z,12.54
2023-06-07T01:47:12.288Z,12.11
2023-06-07T01:49:40.076Z,12.51
2023-06-07T01:52:08.266Z,12.44
2023-06-07T01:54:37.602Z,12.44
2023-06-07T01:57:18.012Z,12.15
2023-06-07T01:59:54.663Z,12.62
2023-06-07T02:02:28.979Z,12.52
2023-06-07T02:05:01.910Z,12.41
2023-06-07T02:07:34.116Z,12.71
2023-06-07T02:10:04.618Z,12.51
2023-06-07T02:12:35.969Z,12.30
2023-06-07T02:15:04.160Z,12.67
2023-06-07T02:17:32.507Z,12.28
2023-06-07T02:20:00.031Z,12.64
2023-06-07T02:22:27.469Z,12.44
2023-06-07T02:24:55.013Z,12.20
2023-06-07T02:27:22.576Z,12.18
2023-06-07T02:29:51.706Z,12.63
2023-06-07T02:32:19.500Z,12.34
2023-06-07T02:34:47.075Z,12.05
2023-06-07T02:37:14.524Z,12.25
2023-06-07T02:39:42.197Z,12.67
2023-06-07T02:42:09.796Z,12.70
2023-06-07T02:44:37.207Z,12.57
2023-06-07T02:47:06.965Z,12.87
2023-06-07T02:49:34.627Z,12.99
2023-06-07T02:52:02.253Z,13.27
2023-06-07T02:54:30.160Z,13.17
2023-06-07T02:56:57.878Z,13.47
2023-06-07T02:59:25.273Z,13.59
2023-06-07T03:01:52.904Z,13.77
2023-06-07T03:04:21.949Z,14.04
2023-06-07T03:06:49.389Z,14.11
2023-06-07T03:09:16.940Z,14.14
2023-06-07T03:11:44.574Z,13.87
2023-06-07T03:14:11.968Z,14.45
2023-06-07T03:16:39.770Z,14.35
2023-06-07T03:19:07.374Z,14.63
2023-06-07T03:21:38.455Z,14.69
2023-06-07T03:24:06.489Z,14.87
2023-06-07T03:26:36.836Z,14.89
2023-06-07T03:29:04.198Z,14.94
2023-06-07T03:31:31.961Z,15.01
2023-06-07T03:33:59.934Z,15.15
2023-06-07T03:36:27.466Z,14.85
2023-06-07T03:38:56.868Z,15.24
2023-06-07T03:41:24.719Z,15.33
2023-06-07T03:43:52.223Z,15.22
2023-06-07T03:46:19.790Z,15.61
2023-06-07T03:48:48.518Z,15.86
2023-06-07T03:51:16.939Z,15.96
2023-06-07T03:53:44.429Z,16.40
2023-06-07T03:56:13.407Z,16.56
2023-06-07T03:58:40.831Z,16.63
2023-06-07T04:01:08.268Z,17.02
2023-06-07T04:03:35.811Z,17.28
2023-06-07T04:06:03.361Z,17.60
2023-06-07T04:08:31.169Z,17.56
2023-06-07T04:10:59.094Z,18.09
2023-06-07T04:13:27.940Z,18.43
2023-06-07T04:15:55.403Z,18.62
2023-06-07T04:18:22.937Z,18.98
2023-06-07T04:20:50.293Z,19.23
2023-06-07T04:23:17.744Z,19.64
2023-06-07T04:25:45.158Z,20.02
2023-06-07T04:28:18.968Z,20.33
2023-06-07T04:30:48.270Z,20.51
2023-06-07T04:33:15.979Z,20.96
2023-06-07T04:35:44.594Z,21.17
2023-06-07T04:38:22.772Z,21.21
2023-06-07T04:40:52.416Z,21.04
2023-06-07T04:43:25.459Z,21.44
2023-06-07T04:45:54.989Z,21.18
2023-06-07T04:48:23.359Z,21.56
2023-06-07T04:50:51.898Z,21.65
2023-06-07T04:53:19.737Z,21.59
2023-06-07T04:55:47.732Z,21.72
2023-06-07T04:58:16.392Z,21.89
2023-06-07T05:00:45.870Z,21.69
2023-06-07T05:03:17.622Z,22.20
2023-06-07T05:05:45.323Z,22.36
2023-06-07T05:08:19.434Z,22.51
2023-06-07T05:10:47.161Z,22.63
2023-06-07T05:13:14.692Z,22.78
2023-06-07T05:15:42.671Z,22.48
2023-06-07T05:18:10.595Z,23.00
2023-06-07T05:20:46.933Z,22.83
2023-06-07T05:23:17.239Z,23.11
2023-06-07T05:25:45.222Z,22.91
2023-06-07T05:28:15.028Z,23.31
2023-06-07T05:30:45.284Z,23.05
2023-06-07T05:33:12.759Z,23.18
2023-06-07T05:35:44.215Z,23.21
2023-06-07T05:38:12.404Z,23.48
2023-06-07T05:40:39.823Z,23.90
2023-06-07T05:43:09.393Z,24.09
2023-06-07T05:45:38.152Z,24.21
2023-06-07T05:48:08.279Z,24.46
2023-06-07T05:50:37.841Z,24.56
2023-06-07T05:53:22.160Z,24.30
2023-06-07T05:55:49.716Z,25.07
2023-06-07T05:58:17.189Z,24.99
2023-06-07T06:00:44.859Z,25.16
2023-06-07T06:03:12.364Z,25.34
2023-06-07T06:05:39.727Z,25.47
2023-06-07T06:08:07.299Z,25.48
2023-06-07T06:10:36.227Z,25.45
2023-06-07T06:13:04.047Z,25.62
2023-06-07T06:15:31.492Z,26.01
2023-06-07T06:17:58.780Z,26.35
2023-06-07T06:20:26.209Z,26.57
2023-06-07T06:22:55.660Z,26.12
2023-06-07T06:25:22.955Z,26.81
2023-06-07T06:27:51.869Z,27.14
2023-06-07T06:30:19.490Z,27.22
2023-06-07T06:32:47.119Z,27.28
2023-06-07T06:35:17.429Z,27.08
2023-06-07T06:37:53.505Z,27.10
2023-06-07T06:40:21.324Z,27.68
2023-06-07T06:42:48.753Z,27.34
2023-06-07T06:45:18.150Z,27.69
2023-06-07T06:47:45.969Z,26.91
2023-06-07T06:50:31.031Z,27.53
2023-06-07T06:53:01.012Z,27.83
2023-06-07T06:55:28.548Z,27.70
2023-06-07T06:58:05.824Z,27.61
2023-06-07T07:00:36.932Z,28.30
2023-06-07T07:03:07.359Z,28.61
2023-06-07T07:05:34.871Z,28.44
2023-06-07T07:08:07.932Z,28.24
2023-06-07T07:10:35.904Z,28.45
2023-06-07T07:13:03.260Z,28.51
2023-06-07T07:15:30.966Z,28.15
2023-06-07T07:17:59.946Z,28.54
2023-06-07T07:20:27.258Z,28.95
2023-06-07T07:22:54.998Z,29.73
2023-06-07T07:25:22.562Z,29.94
2023-06-07T07:27:50.003Z,29.69
2023-06-07T07:30:17.947Z,29.89
2023-06-07T07:32:45.499Z,29.94
2023-06-07T07:35:41.887Z,29.91
2023-06-07T07:38:09.614Z,30.28
2023-06-07T07:40:38.200Z,30.54
2023-06-07T07:43:05.899Z,30.47
2023-06-07T07:45:33.998Z,30.76
2023-06-07T07:48:01.489Z,31.30
2023-06-07T07:50:30.330Z,30.81
2023-06-07T07:53:02.337Z,31.42
2023-06-07T07:55:29.744Z,31.24
2023-06-07T07:57:57.230Z,31.08
2023-06-07T08:00:25.019Z,30.94
2023-06-07T08:02:52.651Z,31.35
2023-06-07T08:05:20.002Z,30.08
2023-06-07T08:07:47.406Z,30.84
2023-06-07T08:10:16.624Z,30.69
2023-06-07T08:12:43.992Z,30.79
2023-06-07T08:15:12.204Z,30.91
2023-06-07T08:17:40.856Z,31.08
2023-06-07T08:20:08.865Z,31.06
2023-06-07T08:22:36.831Z,31.03
2023-06-07T08:25:05.034Z,31.28
2023-06-07T08:27:34.298Z,30.67
2023-06-07T08:30:02.464Z,30.23
2023-06-07T08:32:30.932Z,30.68
2023-06-07T08:34:58.607Z,30.70
2023-06-07T08:37:26.112Z,30.43
2023-06-07T08:39:53.962Z,30.16
2023-06-07T08:42:21.387Z,30.18
2023-06-07T08:44:51.011Z,30.76
2023-06-07T08:47:22.020Z,30.91
2023-06-07T08:49:54.742Z,30.30
2023-06-07T08:52:25.053Z,29.78
2023-06-07T08:54:56.111Z,29.16
2023-06-07T08:57:24.184Z,29.54
2023-06-07T08:59:54.063Z,29.60
2023-06-07T09:02:21.789Z,28.90
2023-06-07T09:04:49.774Z,29.35
2023-06-07T09:07:17.728Z,29.25
2023-06-07T09:09:45.609Z,29.15
2023-06-07T09:12:13.087Z,28.68
2023-06-07T09:14:41.256Z,28.99
2023-06-07T09:17:10.734Z,29.24
2023-06-07T09:19:39.688Z,29.55
2023-06-07T09:22:08.176Z,29.76
2023-06-07T09:24:36.664Z,29.95
2023-06-07T09:27:05.356Z,29.57
2023-06-07T09:29:40.619Z,29.74
2023-06-07T09:32:23.604Z,30.00
2023-06-07T09:34:52.604Z,30.09
2023-06-07T09:37:20.442Z,30.06
2023-06-07T09:39:50.593Z,29.85
2023-06-07T09:42:18.583Z,29.28
2023-06-07T09:44:46.367Z,29.32
2023-06-07T09:47:24.754Z,29.50
2023-06-07T09:49:52.547Z,29.65
2023-06-07T09:52:19.995Z,30.05
2023-06-07T09:54:47.771Z,30.50
2023-06-07T09:57:30.178Z,30.05
2023-06-07T09:59:59.505Z,29.94
2023-06-07T10:02:29.919Z,29.85
2023-06-07T10:04:59.190Z,29.62
2023-06-07T10:07:32.083Z,29.61
2023-06-07T10:10:00.004Z,30.12
2023-06-07T10:12:29.524Z,29.47
2023-06-07T10:15:00.925Z,29.35
2023-06-07T10:17:49.008Z,29.05
2023-06-07T10:20:23.889Z,29.55
2023-06-07T10:22:52.546Z,30.13
2023-06-07T10:25:21.380Z,30.08
2023-06-07T10:27:56.470Z,29.79
2023-06-07T10:30:26.585Z,29.52
2023-06-07T10:32:56.066Z,29.92
2023-06-07T10:35:24.714Z,29.72
2023-06-07T10:37:52.614Z,29.23
2023-06-07T10:40:20.552Z,29.40
2023-06-07T10:42:48.741Z,29.77
2023-06-07T10:45:19.450Z,29.95
2023-06-07T10:47:47.486Z,29.55
2023-06-07T10:50:47.780Z,29.42
2023-06-07T10:53:15.388Z,29.34
2023-06-07T10:55:42.707Z,29.18
2023-06-07T10:58:29.022Z,29.05
2023-06-07T11:01:25.402Z,28.97
2023-06-07T11:03:53.820Z,29.18
2023-06-07T11:06:22.902Z,29.14
2023-06-07T11:08:50.449Z,28.73
2023-06-07T11:11:50.957Z,29.39
2023-06-07T11:14:18.852Z,29.76
2023-06-07T11:16:46.214Z,29.60
2023-06-07T11:19:16.260Z,30.02
2023-06-07T11:22:01.430Z,29.98
2023-06-07T11:24:29.525Z,30.33
2023-06-07T11:26:57.833Z,30.42
2023-06-07T11:29:25.621Z,30.13
2023-06-07T11:31:59.294Z,30.13
2023-06-07T11:34:29.261Z,30.53
2023-06-07T11:37:11.790Z,30.68
2023-06-07T11:39:39.357Z,30.92
2023-06-07T11:42:07.206Z,30.72
2023-06-07T11:44:35.253Z,30.84
2023-06-07T11:47:07.438Z,30.84
2023-06-07T11:49:36.384Z,30.68
2023-06-07T11:52:04.433Z,30.48
2023-06-07T11:54:33.416Z,30.56
2023-06-07T11:57:01.841Z,30.47
2023-06-07T11:59:31.052Z,30.16
2023-06-07T12:02:00.590Z,29.85
2023-06-07T12:04:28.250Z,29.81
2023-06-07T12:06:55.918Z,29.77
2023-06-07T12:09:23.390Z,29.88
2023-06-07T12:11:52.652Z,30.19
2023-06-07T12:14:30.871Z,30.54
2023-06-07T12:16:59.061Z,30.72
2023-06-07T12:19:26.534Z,30.94
2023-06-07T12:21:54.066Z,30.56
2023-06-07T12:24:21.482Z,30.84
2023-06-07T12:26:48.989Z,30.57
2023-06-07T12:29:17.758Z,30.52
2023-06-07T12:31:45.756Z,31.00
2023-06-07T12:34:13.307Z,31.02
2023-06-07T12:36:40.704Z,30.93
2023-06-07T12:39:09.773Z,30.49
2023-06-07T12:41:37.877Z,30.42
2023-06-07T12:44:06.447Z,30.22
2023-06-07T12:46:36.153Z,29.87
2023-06-07T12:49:04.038Z,29.80
2023-06-07T12:51:31.605Z,30.05
2023-06-07T12:53:59.057Z,30.39
2023-06-07T12:56:26.519Z,30.00
2023-06-07T12:58:54.430Z,30.13
2023-06-07T13:01:22.123Z,30.05
2023-06-07T13:03:51.790Z,30.37
2023-06-07T13:06:19.443Z,30.39
2023-06-07T13:08:46.941Z,30.44
2023-06-07T13:11:14.864Z,30.06
2023-06-07T13:13:42.517Z,30.13
2023-06-07T13:16:10.016Z,30.00
2023-06-07T13:18:41.509Z,29.97
2023-06-07T13:21:10.930Z,30.41
2023-06-07T13:23:39.267Z,30.26
2023-06-07T13:26:06.636Z,30.13
2023-06-07T13:28:34.068Z,30.00
2023-06-07T13:31:01.555Z,29.88
2023-06-07T13:33:29.191Z,30.00
2023-06-07T13:35:57.094Z,29.54
2023-06-07T13:38:26.028Z,29.82
2023-06-07T13:40:53.435Z,29.64
2023-06-07T13:43:27.738Z,29.62
2023-06-07T13:45:58.685Z,29.47
2023-06-07T13:48:26.776Z,29.71
2023-06-07T13:50:54.282Z,29.70
2023-06-07T13:53:23.963Z,29.69
2023-06-07T13:55:53.020Z,29.53
2023-06-07T13:58:20.300Z,29.38
2023-06-07T14:00:48.151Z,29.26
2023-06-07T14:03:18.993Z,29.02
2023-06-07T14:05:49.389Z,28.96
2023-06-07T14:08:16.889Z,28.68
2023-06-07T14:10:44.556Z,28.78
2023-06-07T14:13:13.638Z,28.63
2023-06-07T14:15:44.200Z,28.56
2023-06-07T14:18:11.756Z,28.79
2023-06-07T14:20:39.832Z,28.94
2023-06-07T14:23:09.124Z,28.88
2023-06-07T14:25:36.819Z,28.66
2023-06-07T14:28:04.826Z,28.65
2023-06-07T14:30:34.178Z,28.80
2023-06-07T14:33:01.798Z,28.68
2023-06-07T14:35:29.333Z,28.87
2023-06-07T14:37:56.969Z,28.64
2023-06-07T14:40:24.528Z,28.15
2023-06-07T14:42:51.926Z,28.44
2023-06-07T14:45:19.290Z,28.79
2023-06-07T14:47:48.169Z,28.44
2023-06-07T14:50:15.550Z,28.21
2023-06-07T14:52:42.969Z,28.33
2023-06-07T14:55:10.697Z,28.23
2023-06-07T14:57:38.374Z,27.90
2023-06-07T15:00:07.454Z,28.11
2023-06-07T15:02:37.113Z,27.57
2023-06-07T15:05:07.192Z,27.56
2023-06-07T15:07:35.930Z,27.12
2023-06-07T15:10:06.771Z,27.21
2023-06-07T15:12:34.489Z,27.14
2023-06-07T15:15:02.317Z,27.17
2023-06-07T15:17:30.059Z,26.96
2023-06-07T15:20:02.158Z,26.71
2023-06-07T15:22:34.554Z,26.26
2023-06-07T15:25:05.172Z,26.59
2023-06-07T15:27:32.958Z,26.34
2023-06-07T15:30:00.590Z,25.92
2023-06-07T15:32:27.989Z,25.88
2023-06-07T15:34:56.003Z,26.35
2023-06-07T15:37:23.362Z,26.38
2023-06-07T15:39:52.214Z,26.44
2023-06-07T15:42:19.924Z,26.34
2023-06-07T15:44:47.484Z,26.13
2023-06-07T15:47:16.096Z,26.29
2023-06-07T15:49:43.593Z,26.01
2023-06-07T15:52:10.904Z,26.05
2023-06-07T15:54:38.282Z,25.96
2023-06-07T15:57:08.725Z,25.82
2023-06-07T15:59:36.010Z,25.51
2023-06-07T16:02:03.795Z,25.52
2023-06-07T16:04:31.507Z,25.22
2023-06-07T16:06:58.950Z,24.96
2023-06-07T16:09:26.306Z,25.09
2023-06-07T16:11:54.146Z,24.74
2023-06-07T16:14:23.129Z,24.66
2023-06-07T16:16:50.612Z,24.86
2023-06-07T16:19:18.424Z,24.84
2023-06-07T16:21:45.732Z,24.86
2023-06-07T16:24:15.423Z,24.72
2023-06-07T16:26:43.271Z,24.59
2023-06-07T16:29:10.836Z,24.32
2023-06-07T16:31:39.842Z,24.38
2023-06-07T16:34:07.608Z,24.45
2023-06-07T16:36:36.611Z,24.33
2023-06-07T16:39:04.130Z,24.03
2023-06-07T16:41:32.128Z,24.31
2023-06-07T16:43:59.611Z,23.95
2023-06-07T16:46:27.202Z,24.08
2023-06-07T16:48:57.856Z,24.25
2023-06-07T16:51:25.211Z,24.13
2023-06-07T16:53:52.570Z,24.05
2023-06-07T16:56:20.422Z,23.95
2023-06-07T16:58:47.998Z,23.90
2023-06-07T17:01:16.624Z,23.70
2023-06-07T17:03:44.375Z,23.78
2023-06-07T17:06:13.395Z,23.81
2023-06-07T17:08:42.703Z,23.64
2023-06-07T17:11:10.183Z,23.65
2023-06-07T17:13:38.346Z,23.49
2023-06-07T17:16:06.199Z,23.47
2023-06-07T17:18:34.109Z,23.39
2023-06-07T17:21:01.498Z,23.21
2023-06-07T17:23:31.072Z,22.85
2023-06-07T17:25:58.882Z,23.10
2023-06-07T17:28:26.263Z,22.91
2023-06-07T17:30:54.191Z,22.12
2023-06-07T17:33:21.924Z,22.12
2023-06-07T17:35:49.244Z,22.14
2023-06-07T17:38:16.649Z,22.04
2023-06-07T17:40:45.796Z,21.90
2023-06-07T17:43:13.284Z,21.80
2023-06-07T17:45:41.024Z,21.55
2023-06-07T17:48:08.851Z,21.56
2023-06-07T17:50:46.196Z,21.25
2023-06-07T17:53:15.494Z,20.81
2023-06-07T17:55:46.117Z,20.99
2023-06-07T17:58:14.109Z,20.71
2023-06-07T18:00:42.166Z,20.73
2023-06-07T18:03:09.857Z,20.59
2023-06-07T18:05:37.471Z,20.16
2023-06-07T18:08:06.787Z,20.33
2023-06-07T18:10:37.507Z,20.21
2023-06-07T18:13:08.082Z,20.04
2023-06-07T18:15:36.297Z,19.93
2023-06-07T18:18:04.023Z,19.60
2023-06-07T18:20:32.304Z,19.58
2023-06-07T18:23:00.163Z,19.50
2023-06-07T18:25:27.902Z,19.44
2023-06-07T18:27:56.670Z,19.50
2023-06-07T18:30:27.703Z,19.35
2023-06-07T18:32:55.845Z,19.33
2023-06-07T18:35:24.393Z,19.26
2023-06-07T18:37:52.005Z,18.93
2023-06-07T18:40:20.506Z,19.16
2023-06-07T18:42:48.902Z,19.10
2023-06-07T18:45:16.643Z,19.12
2023-06-07T18:47:47.605Z,18.80
2023-06-07T18:50:16.406Z,19.06
2023-06-07T18:52:44.833Z,19.12
2023-06-07T18:55:12.919Z,18.69
2023-06-07T18:57:41.198Z,18.87
2023-06-07T19:00:11.733Z,18.69
2023-06-07T19:02:43.750Z,18.48
2023-06-07T19:05:14.091Z,18.23
2023-06-07T19:07:42.622Z,18.52
2023-06-07T19:10:11.087Z,18.50
2023-06-07T19:12:42.803Z,18.07
2023-06-07T19:15:11.921Z,18.26
2023-06-07T19:17:42.685Z,18.07
2023-06-07T19:20:19.352Z,18.04
2023-06-07T19:22:48.162Z,17.99
2023-06-07T19:25:16.310Z,17.80
2023-06-07T19:27:45.001Z,18.15
2023-06-07T19:30:25.267Z,17.99
2023-06-07T19:33:02.933Z,17.97
2023-06-07T19:35:33.188Z,17.52
2023-06-07T19:38:04.719Z,18.00
2023-06-07T19:40:33.527Z,17.92
2023-06-07T19:44:04.494Z,17.47
2023-06-07T19:46:23.423Z,17.79
2023-06-07T19:48:51.734Z,17.73
2023-06-07T19:51:21.352Z,17.72
2023-06-07T19:53:59.656Z,17.54
2023-06-07T19:56:28.305Z,17.67
2023-06-07T19:59:02.093Z,17.60
2023-06-07T20:01:58.402Z,17.18
2023-06-07T20:04:29.118Z,17.09
2023-06-07T20:06:58.507Z,17.60
2023-06-07T20:09:32.893Z,17.57
2023-06-07T20:12:03.655Z,17.19
2023-06-07T20:14:39.269Z,17.13
2023-06-07T20:17:19.953Z,17.13
2023-06-07T20:19:52.144Z,17.71
2023-06-07T20:22:22.638Z,17.44
2023-06-07T20:24:53.187Z,17.61
2023-06-07T20:27:22.859Z,17.61
2023-06-07T20:33:00.764Z,17.53
2023-06-07T20:35:30.755Z,17.53
2023-06-07T20:38:07.879Z,17.38
2023-06-07T20:40:35.575Z,16.98
2023-06-07T20:43:07.656Z,17.20
2023-06-07T20:45:39.437Z,17.43
2023-06-07T20:48:09.801Z,17.67
2023-06-07T20:50:37.287Z,17.35
2023-06-07T20:53:15.007Z,17.42
2023-06-07T20:55:44.813Z,16.87
2023-06-07T20:58:14.361Z,17.20
2023-06-07T21:01:18.518Z,17.05
2023-06-07T21:04:20.517Z,17.08
2023-06-07T21:07:06.327Z,17.49
2023-06-07T21:13:07.391Z,17.28
2023-06-07T21:15:37.552Z,17.18
2023-06-07T21:18:11.027Z,17.44
2023-06-07T21:20:38.939Z,17.80
2023-06-07T21:23:06.576Z,17.84
2023-06-07T21:25:43.339Z,17.81
2023-06-07T21:28:14.489Z,17.57
2023-06-07T21:30:43.635Z,17.40
2023-06-07T21:33:14.479Z,17.58
2023-06-07T21:35:48.220Z,17.74
2023-06-07T21:38:16.491Z,17.50
2023-06-07T21:41:43.240Z,17.61
2023-06-07T21:51:57.910Z,17.52
2023-06-07T21:54:50.277Z,17.59
2023-06-07T21:57:18.365Z,17.41
2023-06-07T21:59:47.544Z,17.11
2023-06-07T22:02:14.920Z,17.46
2023-06-07T22:04:42.653Z,17.37
2023-06-07T22:07:11.713Z,17.01
2023-06-07T22:09:39.522Z,16.80
2023-06-07T22:12:26.230Z,16.67
2023-06-07T22:14:57.892Z,17.24
2023-06-07T22:17:25.511Z,17.10
2023-06-07T22:19:52.831Z,17.07
2023-06-07T22:22:20.259Z,17.06
2023-06-07T22:24:47.882Z,16.94
2023-06-07T22:27:15.228Z,16.78
2023-06-07T22:29:42.895Z,16.78
2023-06-07T22:32:11.923Z,16.61
2023-06-07T22:34:39.537Z,16.76
2023-06-07T22:37:07.491Z,16.63
2023-06-07T22:39:35.019Z,16.74
2023-06-07T22:42:02.304Z,16.35
2023-06-07T22:44:29.878Z,16.70
2023-06-07T22:46:57.551Z,16.66
2023-06-07T22:49:26.661Z,16.70
2023-06-07T22:51:54.109Z,16.74
2023-06-07T22:54:21.516Z,16.38
2023-06-07T22:56:48.856Z,16.72
2023-06-07T22:59:16.352Z,16.50
2023-06-07T23:01:43.859Z,16.31
2023-06-07T23:04:11.278Z,15.84
2023-06-07T23:06:40.085Z,16.34
2023-06-07T23:09:07.516Z,16.23
2023-06-07T23:11:34.845Z,16.17
2023-06-07T23:14:02.543Z,16.17
2023-06-07T23:16:30.242Z,16.21
2023-06-07T23:18:57.513Z,16.27
2023-06-07T23:21:24.948Z,16.27
2023-06-07T23:23:54.208Z,16.24
2023-06-07T23:26:21.678Z,16.12
2023-06-07T23:28:49.271Z,16.02
2023-06-07T23:31:16.717Z,16.00
2023-06-07T23:33:44.164Z,16.07
2023-06-07T23:36:11.797Z,15.67
2023-06-07T23:38:39.540Z,15.57
2023-06-07T23:41:08.360Z,15.47
2023-06-07T23:43:35.816Z,15.36
2023-06-07T23:46:03.406Z,15.39
2023-06-07T23:48:30.742Z,15.46
2023-06-07T23:50:59.249Z,15.43
2023-06-07T23:53:26.841Z,15.29
2023-06-07T23:55:54.240Z,15.25
2023-06-07T23:58:23.401Z,15.25
